createdAt,value
2022-11-27T00:00:44.641Z,25.80
2022-11-27T00:02:44.787Z,25.80
2022-11-27T00:04:44.701Z,25.80
2022-11-27T00:06:44.529Z,25.90
2022-11-27T00:08:44.692Z,25.80
2022-11-27T00:10:44.673Z,25.92
2022-11-27T00:12:44.660Z,25.82
2022-11-27T00:14:44.555Z,25.91
2022-11-27T00:16:44.685Z,25.80
2022-11-27T00:18:44.725Z,25.79
2022-11-27T00:20:44.684Z,25.80
2022-11-27T00:22:44.600Z,25.83
2022-11-27T00:24:44.702Z,25.86
2022-11-27T00:26:44.696Z,25.81
2022-11-27T00:28:44.610Z,25.91
2022-11-27T00:30:44.805Z,25.80
2022-11-27T00:32:44.597Z,25.80
2022-11-27T00:34:44.591Z,25.84
2022-11-27T00:36:48.010Z,25.80
2022-11-27T00:38:44.617Z,25.80
2022-11-27T00:40:44.683Z,25.80
2022-11-27T00:42:44.735Z,25.82
2022-11-27T00:44:44.550Z,25.81
2022-11-27T00:46:44.777Z,25.81
2022-11-27T00:48:44.738Z,25.80
2022-11-27T00:50:44.732Z,25.80
2022-11-27T00:52:44.723Z,25.85
2022-11-27T00:54:44.605Z,25.81
2022-11-27T00:56:44.701Z,25.80
2022-11-27T00:58:44.737Z,25.81
2022-11-27T01:00:44.716Z,25.80
2022-11-27T01:02:44.827Z,25.80
2022-11-27T01:04:44.726Z,25.90
2022-11-27T01:06:44.754Z,25.95
2022-11-27T01:08:44.747Z,25.80
2022-11-27T01:10:44.617Z,25.88
2022-11-27T01:12:44.659Z,25.81
2022-11-27T01:14:44.711Z,25.83
2022-11-27T01:16:44.585Z,25.82
2022-11-27T01:18:44.880Z,25.84
2022-11-27T01:20:44.729Z,25.80
2022-11-27T01:22:44.784Z,25.79
2022-11-27T01:24:44.737Z,25.73
2022-11-27T01:26:44.726Z,25.65
2022-11-27T01:28:44.731Z,25.77
2022-11-27T01:30:44.695Z,25.75
2022-11-27T01:32:44.734Z,25.80
2022-11-27T01:34:44.762Z,25.75
2022-11-27T01:36:44.721Z,25.70
2022-11-27T01:38:44.781Z,25.65
2022-11-27T01:40:44.778Z,25.62
2022-11-27T01:42:44.702Z,25.78
2022-11-27T01:44:44.647Z,25.80
2022-11-27T01:46:44.852Z,25.65
2022-11-27T01:48:44.789Z,25.83
2022-11-27T01:50:44.768Z,25.80
2022-11-27T01:52:44.837Z,25.80
2022-11-27T01:54:44.798Z,25.83
2022-11-27T01:56:44.793Z,25.81
2022-11-27T01:58:44.828Z,25.80
2022-11-27T02:00:44.659Z,25.80
2022-11-27T02:02:44.822Z,25.78
2022-11-27T02:04:44.673Z,25.80
2022-11-27T02:06:44.781Z,25.88
2022-11-27T02:08:44.832Z,25.83
2022-11-27T02:10:44.686Z,25.90
2022-11-27T02:12:44.687Z,25.78
2022-11-27T02:14:44.782Z,25.79
2022-11-27T02:16:44.835Z,25.80
2022-11-27T02:18:44.789Z,25.81
2022-11-27T02:20:44.637Z,25.90
2022-11-27T02:22:44.813Z,25.80
2022-11-27T02:24:44.817Z,25.80
2022-11-27T02:26:44.791Z,25.80
2022-11-27T02:28:44.805Z,25.90
2022-11-27T02:30:44.829Z,25.80
2022-11-27T02:32:44.828Z,25.78
2022-11-27T02:34:44.834Z,25.80
2022-11-27T02:36:44.806Z,25.80
2022-11-27T02:38:44.833Z,25.79
2022-11-27T02:40:44.834Z,25.84
2022-11-27T02:42:44.879Z,25.84
2022-11-27T02:44:44.839Z,25.81
2022-11-27T02:46:44.884Z,25.83
2022-11-27T02:48:44.865Z,25.75
2022-11-27T02:50:44.755Z,25.83
2022-11-27T02:52:44.754Z,25.79
2022-11-27T02:54:44.840Z,25.72
2022-11-27T02:56:44.847Z,25.85
2022-11-27T02:58:44.848Z,25.80
2022-11-27T03:00:44.832Z,25.77
2022-11-27T03:02:45.004Z,25.80
2022-11-27T03:04:44.790Z,25.79
2022-11-27T03:06:44.839Z,25.84
2022-11-27T03:08:44.845Z,25.86
2022-11-27T03:10:44.876Z,25.84
2022-11-27T03:12:44.885Z,25.94
2022-11-27T03:14:44.834Z,25.86
2022-11-27T03:16:44.860Z,25.80
2022-11-27T03:18:44.777Z,25.83
2022-11-27T03:20:44.812Z,25.90
2022-11-27T03:22:44.882Z,25.93
2022-11-27T03:24:44.929Z,25.88
2022-11-27T03:26:44.904Z,25.83
2022-11-27T03:28:44.890Z,25.80
2022-11-27T03:30:44.872Z,25.80
2022-11-27T03:32:44.869Z,25.82
2022-11-27T03:34:44.729Z,25.82
2022-11-27T03:36:44.892Z,25.86
2022-11-27T03:38:44.917Z,25.81
2022-11-27T03:40:44.930Z,25.80
2022-11-27T03:42:44.813Z,25.80
2022-11-27T03:44:44.915Z,25.79
2022-11-27T03:46:44.877Z,25.77
2022-11-27T03:48:44.743Z,25.80
2022-11-27T03:50:44.903Z,25.65
2022-11-27T03:52:44.879Z,25.61
2022-11-27T03:54:44.893Z,25.63
2022-11-27T03:56:44.919Z,25.42
2022-11-27T03:58:44.891Z,25.71
2022-11-27T04:00:44.839Z,25.36
2022-11-27T04:02:44.888Z,25.56
2022-11-27T04:04:44.931Z,25.33
2022-11-27T04:06:44.892Z,25.60
2022-11-27T04:08:44.926Z,25.23
2022-11-27T04:10:44.947Z,25.64
2022-11-27T04:12:44.812Z,25.72
2022-11-27T04:14:44.801Z,25.80
2022-11-27T04:16:45.044Z,25.79
2022-11-27T04:18:44.912Z,25.64
2022-11-27T04:20:44.881Z,25.75
2022-11-27T04:22:44.960Z,25.58
2022-11-27T04:24:44.969Z,25.53
2022-11-27T04:26:44.964Z,25.75
2022-11-27T04:28:44.897Z,25.80
2022-11-27T04:30:44.917Z,25.80
2022-11-27T04:32:44.872Z,25.75
2022-11-27T04:34:44.960Z,25.78
2022-11-27T04:36:44.969Z,25.81
2022-11-27T04:38:44.926Z,25.75
2022-11-27T04:40:44.933Z,25.75
2022-11-27T04:42:44.965Z,25.71
2022-11-27T04:44:44.972Z,25.63
2022-11-27T04:46:45.012Z,25.65
2022-11-27T04:48:44.924Z,25.38
2022-11-27T04:50:44.906Z,25.65
2022-11-27T04:52:44.979Z,25.80
2022-11-27T04:54:44.988Z,25.75
2022-11-27T04:56:44.988Z,25.80
2022-11-27T04:58:45.002Z,25.57
2022-11-27T05:00:45.036Z,25.53
2022-11-27T05:02:44.954Z,25.59
2022-11-27T05:04:45.004Z,25.65
2022-11-27T05:06:44.953Z,25.72
2022-11-27T05:08:45.016Z,25.71
2022-11-27T05:10:44.877Z,25.80
2022-11-27T05:12:44.936Z,25.85
2022-11-27T05:14:44.897Z,25.77
2022-11-27T05:16:44.994Z,25.81
2022-11-27T05:18:45.014Z,25.74
2022-11-27T05:20:44.982Z,25.75
2022-11-27T05:22:45.096Z,25.75
2022-11-27T05:24:44.986Z,25.62
2022-11-27T05:26:45.001Z,25.81
2022-11-27T05:28:44.988Z,25.53
2022-11-27T05:30:44.932Z,25.65
2022-11-27T05:32:44.871Z,25.84
2022-11-27T05:34:44.986Z,25.80
2022-11-27T05:36:45.012Z,25.79
2022-11-27T05:38:44.876Z,25.78
2022-11-27T05:40:45.038Z,25.77
2022-11-27T05:42:45.039Z,25.75
2022-11-27T05:44:45.053Z,25.75
2022-11-27T05:46:45.032Z,25.91
2022-11-27T05:48:45.045Z,25.80
2022-11-27T05:50:44.992Z,25.80
2022-11-27T05:52:45.046Z,25.77
2022-11-27T05:54:45.043Z,25.83
2022-11-27T05:56:45.056Z,25.80
2022-11-27T05:58:45.104Z,25.65
2022-11-27T06:00:44.900Z,25.65
2022-11-27T06:02:45.159Z,25.60
2022-11-27T06:04:45.037Z,25.80
2022-11-27T06:06:44.884Z,25.80
2022-11-27T06:08:45.077Z,25.80
2022-11-27T06:10:45.051Z,25.84
2022-11-27T06:12:45.020Z,25.79
2022-11-27T06:14:45.088Z,25.56
2022-11-27T06:16:45.116Z,24.87
2022-11-27T06:18:45.085Z,24.81
2022-11-27T06:20:47.868Z,24.74
2022-11-27T06:22:44.992Z,24.69
2022-11-27T06:24:45.038Z,24.66
2022-11-27T06:26:45.047Z,24.59
2022-11-27T06:28:45.073Z,24.56
2022-11-27T06:30:45.050Z,24.47
2022-11-27T06:32:45.055Z,24.46
2022-11-27T06:34:45.041Z,24.43
2022-11-27T06:36:45.060Z,24.41
2022-11-27T06:38:45.096Z,24.34
2022-11-27T06:40:44.982Z,24.36
2022-11-27T06:42:45.046Z,24.39
2022-11-27T06:44:45.074Z,24.30
2022-11-27T06:46:45.127Z,24.29
2022-11-27T06:48:45.063Z,24.21
2022-11-27T06:50:45.111Z,24.27
2022-11-27T06:52:44.938Z,24.20
2022-11-27T06:54:45.007Z,24.19
2022-11-27T06:56:45.113Z,24.08
2022-11-27T06:58:45.175Z,24.20
2022-11-27T07:00:45.081Z,24.19
2022-11-27T07:02:45.127Z,24.27
2022-11-27T07:04:44.998Z,24.24
2022-11-27T07:06:44.992Z,24.12
2022-11-27T07:08:45.134Z,24.10
2022-11-27T07:10:45.116Z,24.09
2022-11-27T07:12:45.085Z,24.33
2022-11-27T07:14:45.127Z,24.18
2022-11-27T07:16:45.177Z,24.38
2022-11-27T07:18:45.123Z,24.34
2022-11-27T07:20:45.088Z,24.38
2022-11-27T07:22:45.085Z,24.38
2022-11-27T07:24:45.135Z,24.48
2022-11-27T07:26:45.137Z,24.39
2022-11-27T07:28:45.137Z,24.43
2022-11-27T07:30:45.099Z,24.51
2022-11-27T07:32:44.980Z,24.44
2022-11-27T07:34:44.988Z,24.48
2022-11-27T07:36:45.142Z,24.51
2022-11-27T07:38:45.105Z,24.57
2022-11-27T07:40:45.019Z,24.66
2022-11-27T07:42:45.048Z,24.90
2022-11-27T07:44:45.034Z,25.14
2022-11-27T07:46:45.121Z,25.54
2022-11-27T07:48:45.117Z,25.83
2022-11-27T07:50:45.157Z,25.79
2022-11-27T07:52:45.130Z,25.80
2022-11-27T07:54:45.147Z,25.75
2022-11-27T07:56:45.181Z,25.81
2022-11-27T07:58:45.194Z,25.79
2022-11-27T08:00:45.229Z,25.80
2022-11-27T08:02:45.130Z,25.80
2022-11-27T08:04:45.476Z,25.61
2022-11-27T08:06:45.099Z,25.72
2022-11-27T08:08:45.192Z,25.75
2022-11-27T08:10:45.183Z,25.72
2022-11-27T08:12:45.044Z,25.65
2022-11-27T08:14:45.174Z,25.65
2022-11-27T08:16:45.241Z,25.90
2022-11-27T08:18:45.178Z,25.24
2022-11-27T08:20:45.161Z,25.39
2022-11-27T08:22:45.188Z,25.36
2022-11-27T08:24:45.201Z,25.32
2022-11-27T08:26:45.113Z,25.33
2022-11-27T08:28:45.211Z,25.51
2022-11-27T08:30:45.341Z,25.51
2022-11-27T08:32:45.216Z,25.57
2022-11-27T08:34:45.225Z,25.63
2022-11-27T08:36:45.242Z,25.52
2022-11-27T08:38:45.209Z,25.52
2022-11-27T08:40:45.242Z,25.51
2022-11-27T08:42:45.179Z,25.52
2022-11-27T08:44:45.285Z,25.50
2022-11-27T08:46:45.238Z,25.52
2022-11-27T08:48:45.238Z,25.35
2022-11-27T08:50:45.244Z,25.30
2022-11-27T08:52:45.212Z,25.31
2022-11-27T08:54:45.133Z,25.23
2022-11-27T08:56:45.243Z,25.23
2022-11-27T08:58:45.170Z,25.23
2022-11-27T09:00:45.263Z,25.23
2022-11-27T09:02:45.242Z,25.14
2022-11-27T09:04:45.189Z,25.11
2022-11-27T09:06:45.275Z,25.21
2022-11-27T09:08:45.154Z,25.18
2022-11-27T09:10:45.215Z,25.11
2022-11-27T09:12:45.235Z,25.14
2022-11-27T09:14:45.249Z,25.11
2022-11-27T09:16:45.350Z,25.23
2022-11-27T09:18:45.262Z,25.14
2022-11-27T09:20:45.306Z,25.14
2022-11-27T09:22:45.187Z,25.19
2022-11-27T09:24:45.162Z,25.12
2022-11-27T09:26:45.244Z,25.24
2022-11-27T09:28:45.292Z,25.15
2022-11-27T09:30:45.220Z,25.21
2022-11-27T09:32:45.264Z,25.22
2022-11-27T09:34:45.286Z,25.19
2022-11-27T09:36:45.254Z,25.29
2022-11-27T09:38:45.159Z,25.20
2022-11-27T09:40:45.269Z,25.23
2022-11-27T09:42:45.326Z,25.15
2022-11-27T09:44:45.330Z,25.14
2022-11-27T09:46:45.309Z,25.29
2022-11-27T09:48:45.305Z,25.13
2022-11-27T09:50:45.250Z,25.18
2022-11-27T09:52:45.161Z,25.29
2022-11-27T09:54:50.786Z,25.33
2022-11-27T09:56:45.285Z,25.31
2022-11-27T09:58:45.219Z,25.23
2022-11-27T10:00:45.209Z,25.36
2022-11-27T10:02:45.425Z,25.39
2022-11-27T10:06:45.296Z,25.15
2022-11-27T10:08:45.258Z,25.40
2022-11-27T10:10:45.289Z,25.29
2022-11-27T10:12:45.232Z,25.24
2022-11-27T10:14:45.328Z,25.43
2022-11-27T10:16:45.203Z,25.45
2022-11-27T10:18:45.296Z,25.42
2022-11-27T10:20:45.185Z,25.45
2022-11-27T10:22:45.300Z,25.35
2022-11-27T10:24:45.312Z,25.26
2022-11-27T10:26:45.336Z,25.29
2022-11-27T10:28:45.303Z,25.28
2022-11-27T10:30:45.297Z,25.23
2022-11-27T10:32:56.052Z,25.23
2022-11-27T10:34:45.345Z,25.36
2022-11-27T10:36:45.236Z,25.42
2022-11-27T10:38:45.304Z,25.23
2022-11-27T10:40:45.254Z,25.29
2022-11-27T10:42:45.309Z,25.35
2022-11-27T10:44:45.253Z,25.29
2022-11-27T10:46:45.372Z,25.32
2022-11-27T10:48:45.355Z,25.26
2022-11-27T10:50:45.382Z,25.45
2022-11-27T10:52:49.526Z,25.14
2022-11-27T10:54:45.300Z,25.26
2022-11-27T10:56:45.258Z,25.39
2022-11-27T10:58:45.335Z,25.39
2022-11-27T11:00:45.305Z,25.54
2022-11-27T11:02:45.465Z,25.50
2022-11-27T11:04:48.327Z,25.42
2022-11-27T11:06:45.190Z,25.48
2022-11-27T11:08:45.383Z,25.49
2022-11-27T11:10:45.379Z,25.57
2022-11-27T11:12:45.241Z,25.52
2022-11-27T11:14:45.383Z,25.38
2022-11-27T11:16:45.356Z,25.29
2022-11-27T11:18:45.397Z,25.15
2022-11-27T11:20:45.368Z,25.44
2022-11-27T11:22:45.374Z,25.60
2022-11-27T11:24:45.350Z,25.50
2022-11-27T11:26:45.378Z,25.29
2022-11-27T11:28:45.409Z,25.44
2022-11-27T11:30:45.310Z,25.44
2022-11-27T11:32:45.416Z,25.32
2022-11-27T11:34:45.356Z,25.26
2022-11-27T11:36:45.308Z,25.23
2022-11-27T11:38:45.318Z,25.23
2022-11-27T11:40:45.397Z,25.21
2022-11-27T11:42:45.432Z,25.22
2022-11-27T11:44:45.261Z,25.64
2022-11-27T11:46:45.377Z,25.60
2022-11-27T11:48:45.423Z,25.44
2022-11-27T11:50:45.426Z,25.29
2022-11-27T11:52:45.310Z,25.35
2022-11-27T11:54:45.305Z,25.27
2022-11-27T11:56:45.413Z,25.24
2022-11-27T11:58:45.264Z,25.24
2022-11-27T12:01:04.713Z,25.43
2022-11-27T12:02:45.507Z,25.44
2022-11-27T12:04:45.576Z,25.36
2022-11-27T12:06:45.459Z,25.34
2022-11-27T12:08:45.447Z,25.39
2022-11-27T12:10:45.354Z,25.19
2022-11-27T12:12:45.453Z,25.29
2022-11-27T12:14:45.401Z,25.21
2022-11-27T12:16:45.359Z,25.23
2022-11-27T12:18:45.426Z,25.19
2022-11-27T12:20:45.474Z,25.31
2022-11-27T12:22:45.413Z,25.52
2022-11-27T12:24:45.401Z,25.32
2022-11-27T12:26:45.522Z,25.46
2022-11-27T12:28:45.481Z,25.37
2022-11-27T12:30:45.409Z,25.39
2022-11-27T12:32:45.470Z,25.33
2022-11-27T12:34:45.309Z,25.45
2022-11-27T12:36:45.554Z,25.31
2022-11-27T12:38:45.462Z,25.14
2022-11-27T12:40:45.437Z,25.42
2022-11-27T12:42:45.416Z,25.54
2022-11-27T12:44:45.433Z,25.23
2022-11-27T12:46:45.499Z,25.22
2022-11-27T12:48:45.485Z,25.12
2022-11-27T12:50:45.425Z,25.12
2022-11-27T12:52:45.489Z,25.24
2022-11-27T12:54:45.496Z,25.21
2022-11-27T12:56:45.593Z,25.29
2022-11-27T12:58:45.535Z,25.29
2022-11-27T13:00:45.604Z,25.23
2022-11-27T13:02:45.571Z,25.24
2022-11-27T13:04:45.376Z,25.29
2022-11-27T13:06:45.529Z,25.04
2022-11-27T13:08:50.993Z,25.50
2022-11-27T13:10:45.502Z,25.38
2022-11-27T13:12:45.475Z,25.54
2022-11-27T13:14:49.765Z,25.33
2022-11-27T13:16:45.620Z,25.23
2022-11-27T13:18:45.536Z,25.32
2022-11-27T13:20:49.403Z,25.21
2022-11-27T13:22:45.546Z,25.28
2022-11-27T13:24:45.512Z,25.26
2022-11-27T13:26:45.568Z,25.42
2022-11-27T13:28:45.525Z,25.29
2022-11-27T13:30:45.533Z,25.38
2022-11-27T13:32:45.388Z,25.09
2022-11-27T13:34:45.521Z,25.24
2022-11-27T13:36:45.402Z,25.26
2022-11-27T13:38:45.495Z,25.32
2022-11-27T13:40:45.517Z,25.24
2022-11-27T13:42:45.608Z,25.26
2022-11-27T13:44:45.426Z,25.24
2022-11-27T13:46:45.540Z,25.29
2022-11-27T13:48:45.509Z,25.23
2022-11-27T13:50:45.554Z,25.19
2022-11-27T13:52:45.671Z,25.74
2022-11-27T13:54:45.647Z,25.62
2022-11-27T13:56:45.524Z,25.64
2022-11-27T13:58:45.532Z,25.49
2022-11-27T14:00:45.423Z,25.52
2022-11-27T14:02:45.613Z,25.44
2022-11-27T14:04:45.601Z,25.45
2022-11-27T14:06:45.553Z,25.33
2022-11-27T14:08:45.484Z,25.37
2022-11-27T14:10:45.485Z,25.29
2022-11-27T14:12:45.603Z,25.38
2022-11-27T14:14:45.596Z,25.23
2022-11-27T14:16:45.575Z,25.23
2022-11-27T14:18:45.550Z,25.15
2022-11-27T14:20:45.476Z,25.19
2022-11-27T14:23:09.829Z,25.19
2022-11-27T14:24:45.602Z,25.21
2022-11-27T14:26:45.534Z,25.19
2022-11-27T14:28:45.612Z,25.13
2022-11-27T14:30:45.593Z,25.12
2022-11-27T14:32:45.613Z,25.11
2022-11-27T14:34:45.541Z,25.17
2022-11-27T14:36:45.604Z,25.21
2022-11-27T14:38:46.269Z,25.21
2022-11-27T14:40:45.514Z,25.13
2022-11-27T14:42:45.471Z,25.08
2022-11-27T14:44:45.600Z,25.09
2022-11-27T14:46:45.691Z,25.04
2022-11-27T14:48:45.619Z,25.04
2022-11-27T14:50:45.552Z,24.83
2022-11-27T14:52:45.495Z,24.82
2022-11-27T14:54:45.598Z,24.66
2022-11-27T14:56:45.636Z,24.76
2022-11-27T14:58:45.565Z,24.69
2022-11-27T15:00:45.464Z,24.59
2022-11-27T15:02:45.860Z,24.52
2022-11-27T15:04:45.538Z,24.52
2022-11-27T15:06:45.636Z,24.48
2022-11-27T15:08:54.256Z,24.55
2022-11-27T15:10:45.636Z,24.43
2022-11-27T15:12:45.640Z,24.37
2022-11-27T15:14:45.498Z,24.37
2022-11-27T15:16:45.732Z,24.35
2022-11-27T15:18:45.566Z,24.27
2022-11-27T15:20:45.499Z,24.20
2022-11-27T15:22:45.678Z,24.26
2022-11-27T15:24:45.626Z,24.12
2022-11-27T15:26:45.666Z,24.12
2022-11-27T15:28:45.631Z,24.10
2022-11-27T15:30:45.801Z,24.10
2022-11-27T15:32:45.661Z,24.07
2022-11-27T15:34:45.587Z,23.96
2022-11-27T15:36:45.630Z,23.90
2022-11-27T15:38:45.527Z,23.96
2022-11-27T15:40:45.688Z,23.98
2022-11-27T15:42:45.561Z,23.98
2022-11-27T15:44:45.751Z,23.84
2022-11-27T15:46:45.683Z,23.82
2022-11-27T15:48:45.588Z,23.86
2022-11-27T15:50:51.458Z,23.81
2022-11-27T15:52:45.711Z,23.81
2022-11-27T15:54:45.506Z,23.88
2022-11-27T15:56:45.624Z,27.16
2022-11-27T15:58:45.700Z,25.71
2022-11-27T16:00:45.934Z,25.64
2022-11-27T16:02:45.840Z,25.62
2022-11-27T16:04:45.708Z,25.61
2022-11-27T16:06:45.686Z,25.61
2022-11-27T16:08:45.694Z,25.54
2022-11-27T16:10:45.680Z,25.55
2022-11-27T16:12:45.693Z,25.65
2022-11-27T16:14:45.543Z,25.54
2022-11-27T16:16:45.651Z,25.57
2022-11-27T16:18:45.726Z,25.65
2022-11-27T16:20:45.711Z,25.72
2022-11-27T16:22:45.701Z,25.65
2022-11-27T16:24:45.676Z,25.65
2022-11-27T16:26:45.689Z,25.64
2022-11-27T16:28:45.672Z,25.65
2022-11-27T16:30:45.555Z,25.76
2022-11-27T16:32:45.719Z,25.75
2022-11-27T16:34:45.735Z,25.65
2022-11-27T16:36:45.692Z,25.80
2022-11-27T16:38:45.718Z,25.58
2022-11-27T16:40:45.615Z,25.75
2022-11-27T16:42:45.724Z,25.61
2022-11-27T16:44:45.595Z,25.65
2022-11-27T16:46:45.645Z,25.65
2022-11-27T16:48:45.699Z,25.63
2022-11-27T16:50:45.754Z,25.64
2022-11-27T16:52:51.404Z,25.63
2022-11-27T16:54:45.747Z,25.72
2022-11-27T16:56:45.775Z,25.56
2022-11-27T16:58:45.732Z,25.63
2022-11-27T17:00:45.784Z,25.65
2022-11-27T17:02:45.848Z,25.60
2022-11-27T17:04:45.735Z,25.75
2022-11-27T17:06:45.764Z,25.63
2022-11-27T17:08:45.753Z,25.63
2022-11-27T17:10:45.796Z,25.57
2022-11-27T17:12:45.713Z,25.72
2022-11-27T17:14:45.621Z,25.65
2022-11-27T17:16:45.849Z,25.74
2022-11-27T17:18:45.683Z,25.63
2022-11-27T17:20:45.765Z,25.74
2022-11-27T17:22:45.715Z,25.72
2022-11-27T17:24:45.784Z,25.81
2022-11-27T17:26:45.643Z,25.75
2022-11-27T17:28:45.745Z,25.79
2022-11-27T17:30:45.781Z,25.75
2022-11-27T17:32:45.777Z,25.80
2022-11-27T17:34:45.776Z,25.75
2022-11-27T17:36:45.834Z,25.80
2022-11-27T17:38:45.780Z,25.74
2022-11-27T17:40:45.776Z,25.80
2022-11-27T17:42:45.779Z,25.72
2022-11-27T17:44:45.783Z,25.78
2022-11-27T17:46:45.707Z,25.75
2022-11-27T17:48:45.805Z,25.80
2022-11-27T17:50:45.701Z,25.80
2022-11-27T17:52:45.764Z,25.80
2022-11-27T17:54:45.803Z,25.75
2022-11-27T17:56:45.777Z,25.75
2022-11-27T17:58:45.711Z,25.75
2022-11-27T18:00:45.884Z,25.80
2022-11-27T18:02:45.814Z,25.75
2022-11-27T18:04:45.818Z,25.89
2022-11-27T18:06:45.835Z,25.65
2022-11-27T18:08:45.820Z,25.74
2022-11-27T18:10:45.760Z,25.72
2022-11-27T18:12:45.817Z,25.74
2022-11-27T18:14:45.751Z,25.72
2022-11-27T18:16:45.741Z,25.75
2022-11-27T18:18:45.984Z,25.80
2022-11-27T18:20:45.790Z,25.80
2022-11-27T18:22:45.854Z,25.76
2022-11-27T18:24:45.824Z,25.80
2022-11-27T18:27:07.351Z,25.76
2022-11-27T18:28:45.829Z,25.72
2022-11-27T18:30:45.681Z,25.65
2022-11-27T18:32:45.860Z,25.63
2022-11-27T18:34:45.728Z,25.80
2022-11-27T18:36:45.936Z,25.74
2022-11-27T18:38:45.811Z,25.75
2022-11-27T18:40:45.833Z,25.81
2022-11-27T18:42:45.696Z,25.65
2022-11-27T18:44:45.925Z,25.65
2022-11-27T18:46:45.789Z,25.80
2022-11-27T18:48:45.895Z,25.65
2022-11-27T18:50:45.865Z,25.77
2022-11-27T18:52:45.785Z,25.65
2022-11-27T18:54:45.907Z,25.80
2022-11-27T18:56:45.670Z,25.82
2022-11-27T18:58:45.927Z,25.75
2022-11-27T19:00:45.851Z,25.65
2022-11-27T19:02:45.956Z,25.74
2022-11-27T19:04:45.801Z,25.80
2022-11-27T19:06:45.822Z,25.63
2022-11-27T19:08:45.887Z,25.79
2022-11-27T19:10:45.860Z,25.74
2022-11-27T19:12:45.793Z,25.80
2022-11-27T19:14:45.929Z,25.75
2022-11-27T19:16:46.308Z,25.65
2022-11-27T19:18:45.901Z,25.80
2022-11-27T19:20:45.879Z,25.84
2022-11-27T19:22:45.844Z,25.77
2022-11-27T19:24:45.895Z,25.84
2022-11-27T19:26:46.031Z,25.76
2022-11-27T19:28:45.896Z,25.80
2022-11-27T19:30:45.709Z,25.82
2022-11-27T19:32:46.036Z,25.77
2022-11-27T19:34:45.902Z,25.90
2022-11-27T19:36:45.747Z,25.77
2022-11-27T19:38:45.928Z,25.76
2022-11-27T19:40:45.931Z,25.77
2022-11-27T19:42:45.941Z,25.75
2022-11-27T19:44:45.754Z,25.80
2022-11-27T19:46:45.926Z,25.78
2022-11-27T19:48:45.920Z,25.80
2022-11-27T19:50:45.893Z,25.80
2022-11-27T19:52:45.916Z,25.75
2022-11-27T19:54:45.943Z,25.82
2022-11-27T19:56:45.892Z,25.80
2022-11-27T19:58:45.926Z,25.81
2022-11-27T20:00:46.024Z,25.90
2022-11-27T20:02:45.993Z,25.96
2022-11-27T20:04:45.949Z,25.82
2022-11-27T20:06:45.932Z,25.83
2022-11-27T20:08:45.882Z,25.94
2022-11-27T20:10:45.909Z,25.86
2022-11-27T20:12:45.961Z,25.89
2022-11-27T20:14:45.958Z,25.47
2022-11-27T20:16:46.039Z,25.85
2022-11-27T20:18:45.967Z,25.75
2022-11-27T20:20:46.003Z,25.78
2022-11-27T20:22:45.849Z,25.85
2022-11-27T20:25:04.523Z,25.83
2022-11-27T20:26:45.957Z,25.84
2022-11-27T20:28:45.983Z,25.81
2022-11-27T20:30:45.945Z,25.92
2022-11-27T20:32:45.973Z,25.80
2022-11-27T20:34:45.939Z,25.79
2022-11-27T20:36:45.933Z,25.84
2022-11-27T20:38:46.000Z,25.74
2022-11-27T20:40:46.026Z,25.65
2022-11-27T20:42:45.848Z,25.79
2022-11-27T20:44:46.029Z,25.65
2022-11-27T20:46:45.849Z,25.80
2022-11-27T20:48:45.899Z,25.80
2022-11-27T20:50:50.919Z,25.79
2022-11-27T20:52:46.025Z,25.80
2022-11-27T20:54:45.997Z,25.80
2022-11-27T20:56:46.000Z,25.82
2022-11-27T20:58:46.019Z,25.79
2022-11-27T21:00:46.091Z,25.80
2022-11-27T21:02:45.972Z,25.90
2022-11-27T21:04:45.988Z,25.86
2022-11-27T21:06:46.010Z,25.80
2022-11-27T21:08:46.001Z,25.85
2022-11-27T21:10:46.134Z,25.77
2022-11-27T21:12:46.034Z,25.80
2022-11-27T21:14:45.971Z,25.83
2022-11-27T21:16:46.184Z,25.80
2022-11-27T21:18:45.976Z,25.75
2022-11-27T21:20:46.031Z,25.81
2022-11-27T21:22:46.105Z,25.77
2022-11-27T21:24:45.974Z,25.86
2022-11-27T21:26:46.102Z,25.81
2022-11-27T21:28:46.034Z,25.78
2022-11-27T21:30:45.989Z,25.78
2022-11-27T21:32:45.980Z,25.86
2022-11-27T21:34:45.995Z,25.79
2022-11-27T21:36:46.008Z,25.85
2022-11-27T21:38:46.036Z,25.80
2022-11-27T21:40:45.914Z,25.79
2022-11-27T21:42:46.094Z,25.80
2022-11-27T21:44:46.059Z,25.65
2022-11-27T21:46:46.080Z,25.74
2022-11-27T21:48:46.051Z,25.72
2022-11-27T21:50:46.075Z,25.77
2022-11-27T21:52:46.056Z,25.81
2022-11-27T21:54:46.073Z,25.75
2022-11-27T21:56:45.964Z,25.80
2022-11-27T21:58:45.969Z,25.82
2022-11-27T22:00:45.946Z,25.80
2022-11-27T22:02:46.106Z,25.80
2022-11-27T22:04:46.080Z,25.80
2022-11-27T22:06:46.040Z,25.83
2022-11-27T22:08:46.045Z,25.74
2022-11-27T22:10:46.128Z,25.79
2022-11-27T22:12:45.962Z,25.83
2022-11-27T22:14:46.013Z,25.78
2022-11-27T22:16:46.894Z,25.80
2022-11-27T22:18:46.060Z,25.82
2022-11-27T22:20:46.105Z,25.81
2022-11-27T22:22:46.168Z,25.80
2022-11-27T22:24:46.099Z,25.80
2022-11-27T22:26:46.105Z,25.75
2022-11-27T22:28:46.232Z,25.77
2022-11-27T22:30:46.154Z,25.82
2022-11-27T22:32:46.081Z,25.89
2022-11-27T22:34:46.153Z,25.75
2022-11-27T22:36:45.958Z,25.80
2022-11-27T22:38:46.113Z,25.80
2022-11-27T22:40:46.104Z,25.78
2022-11-27T22:42:46.104Z,25.83
2022-11-27T22:44:46.068Z,25.80
2022-11-27T22:46:46.106Z,25.80
2022-11-27T22:48:46.118Z,25.80
2022-11-27T22:50:46.129Z,25.79
2022-11-27T22:52:45.999Z,25.82
2022-11-27T22:54:46.076Z,25.81
2022-11-27T22:56:46.132Z,25.90
2022-11-27T22:58:46.091Z,25.51
2022-11-27T23:00:46.162Z,25.82
2022-11-27T23:02:46.343Z,25.79
2022-11-27T23:04:46.146Z,25.80
2022-11-27T23:06:46.138Z,25.80
2022-11-27T23:08:46.137Z,25.75
2022-11-27T23:10:46.143Z,25.58
2022-11-27T23:12:46.160Z,25.53
2022-11-27T23:14:45.980Z,25.53
2022-11-27T23:16:46.035Z,25.61
2022-11-27T23:18:46.123Z,25.63
2022-11-27T23:20:46.124Z,25.63
2022-11-27T23:22:46.142Z,25.63
2022-11-27T23:24:46.132Z,25.81
2022-11-27T23:26:46.084Z,25.85
2022-11-27T23:28:46.120Z,25.80
2022-11-27T23:30:46.168Z,25.65
2022-11-27T23:32:46.117Z,25.80
2022-11-27T23:34:46.161Z,25.72
2022-11-27T23:36:46.178Z,25.71
2022-11-27T23:38:46.083Z,25.79
2022-11-27T23:40:46.156Z,25.80
2022-11-27T23:42:46.161Z,25.75
2022-11-27T23:44:46.035Z,25.77
2022-11-27T23:46:46.176Z,25.75
2022-11-27T23:48:46.054Z,25.63
2022-11-27T23:50:46.195Z,25.54
2022-11-27T23:52:46.196Z,25.55
2022-11-27T23:54:46.206Z,25.72
2022-11-27T23:56:46.180Z,25.80
2022-11-27T23:58:47.500Z,25.78
